sensor_id;sensor_type;location;lat;lon;timestamp;pressure;altitude;pressure_sealevel;temperature;humidity
66560;BME280;53413;49.878;8.142;2023-02-18T00:00:06;100779.59;;;11.83;100.00
66560;BME280;53413;49.878;8.142;2023-02-18T00:02:32;100781.31;;;11.84;100.00
66560;BME280;53413;49.878;8.142;2023-02-18T00:04:58;100785.66;;;11.85;100.00
66560;BME280;53413;49.878;8.142;2023-02-18T00:07:23;100784.78;;;11.85;100.00
66560;BME280;53413;49.878;8.142;2023-02-18T00:09:49;100786.50;;;11.86;100.00
66560;BME280;53413;49.878;8.142;2023-02-18T00:12:14;100783.03;;;11.85;100.00
66560;BME280;53413;49.878;8.142;2023-02-18T00:14:39;100783.09;;;11.84;100.00
66560;BME280;53413;49.878;8.142;2023-02-18T00:17:05;100783.09;;;11.84;100.00
66560;BME280;53413;49.878;8.142;2023-02-18T00:19:30;100778.72;;;11.83;100.00
66560;BME280;53413;49.878;8.142;2023-02-18T00:21:55;100779.66;;;11.80;100.00
66560;BME280;53413;49.878;8.142;2023-02-18T00:24:21;100772.06;;;11.73;100.00
66560;BME280;53413;49.878;8.142;2023-02-18T00:26:49;100778.38;;;11.65;100.00
66560;BME280;53413;49.878;8.142;2023-02-18T00:29:15;100782.06;;;11.60;100.00
66560;BME280;53413;49.878;8.142;2023-02-18T00:31:40;100776.03;;;11.56;100.00
66560;BME280;53413;49.878;8.142;2023-02-18T00:34:05;100769.06;;;11.55;100.00
66560;BME280;53413;49.878;8.142;2023-02-18T00:36:31;100763.88;;;11.53;100.00
66560;BME280;53413;49.878;8.142;2023-02-18T00:38:59;100758.66;;;11.52;100.00
66560;BME280;53413;49.878;8.142;2023-02-18T00:41:26;100749.19;;;11.48;100.00
66560;BME280;53413;49.878;8.142;2023-02-18T00:43:52;100751.88;;;11.45;100.00
66560;BME280;53413;49.878;8.142;2023-02-18T00:46:17;100751.91;;;11.43;100.00
66560;BME280;53413;49.878;8.142;2023-02-18T00:48:43;100767.72;;;11.42;100.00
66560;BME280;53413;49.878;8.142;2023-02-18T00:51:09;100760.81;;;11.37;100.00
66560;BME280;53413;49.878;8.142;2023-02-18T00:53:35;100760.03;;;11.35;100.00
66560;BME280;53413;49.878;8.142;2023-02-18T00:56:00;100769.63;;;11.36;100.00
66560;BME280;53413;49.878;8.142;2023-02-18T00:58:26;100769.72;;;11.33;100.00
66560;BME280;53413;49.878;8.142;2023-02-18T01:00:51;100772.34;;;11.33;100.00
66560;BME280;53413;49.878;8.142;2023-02-18T01:03:17;100774.09;;;11.33;100.00
66560;BME280;53413;49.878;8.142;2023-02-18T01:05:43;100774.97;;;11.33;100.00
66560;BME280;53413;49.878;8.142;2023-02-18T01:08:09;100769.66;;;11.35;100.00
66560;BME280;53413;49.878;8.142;2023-02-18T01:10:38;100767.91;;;11.35;100.00
66560;BME280;53413;49.878;8.142;2023-02-18T01:13:04;100768.75;;;11.36;100.00
66560;BME280;53413;49.878;8.142;2023-02-18T01:15:29;100769.63;;;11.36;100.00
66560;BME280;53413;49.878;8.142;2023-02-18T01:17:55;100772.25;;;11.36;100.00
66560;BME280;53413;49.878;8.142;2023-02-18T01:20:20;100777.50;;;11.36;100.00
66560;BME280;53413;49.878;8.142;2023-02-18T01:22:46;100771.44;;;11.34;100.00
66560;BME280;53413;49.878;8.142;2023-02-18T01:25:11;100775.78;;;11.35;100.00
66560;BME280;53413;49.878;8.142;2023-02-18T01:27:37;100775.72;;;11.37;100.00
66560;BME280;53413;49.878;8.142;2023-02-18T01:30:04;100768.81;;;11.34;100.00
66560;BME280;53413;49.878;8.142;2023-02-18T01:32:30;100760.06;;;11.34;100.00
66560;BME280;53413;49.878;8.142;2023-02-18T01:34:55;100761.88;;;11.32;100.00
66560;BME280;53413;49.878;8.142;2023-02-18T01:37:21;100761.03;;;11.31;100.00
66560;BME280;53413;49.878;8.142;2023-02-18T01:39:46;100748.81;;;11.30;100.00
66560;BME280;53413;49.878;8.142;2023-02-18T01:42:20;100747.97;;;11.30;100.00
66560;BME280;53413;49.878;8.142;2023-02-18T01:44:46;100748.81;;;11.30;100.00
66560;BME280;53413;49.878;8.142;2023-02-18T01:47:13;100744.41;;;11.31;100.00
66560;BME280;53413;49.878;8.142;2023-02-18T01:49:38;100732.16;;;11.31;100.00
66560;BME280;53413;49.878;8.142;2023-02-18T01:52:06;100727.75;;;11.32;100.00
66560;BME280;53413;49.878;8.142;2023-02-18T01:54:35;100720.75;;;11.32;100.00
66560;BME280;53413;49.878;8.142;2023-02-18T01:59:32;100730.34;;;11.33;100.00
66560;BME280;53413;49.878;8.142;2023-02-18T02:01:59;100720.69;;;11.34;100.00
66560;BME280;53413;49.878;8.142;2023-02-18T02:04:25;100709.31;;;11.35;100.00
66560;BME280;53413;49.878;8.142;2023-02-18T02:06:51;100702.25;;;11.37;100.00
66560;BME280;53413;49.878;8.142;2023-02-18T02:09:18;100704.81;;;11.38;100.00
66560;BME280;53413;49.878;8.142;2023-02-18T02:14:42;100708.34;;;11.37;100.00
66560;BME280;53413;49.878;8.142;2023-02-18T02:26:03;100694.22;;;11.42;100.00
66560;BME280;53413;49.878;8.142;2023-02-18T02:36:39;100694.22;;;11.42;100.00
66560;BME280;53413;49.878;8.142;2023-02-18T02:39:27;100687.31;;;11.39;100.00
66560;BME280;53413;49.878;8.142;2023-02-18T02:45:16;100692.66;;;11.36;100.00
66560;BME280;53413;49.878;8.142;2023-02-18T02:50:47;100678.69;;;11.35;100.00
66560;BME280;53413;49.878;8.142;2023-02-18T02:53:26;100674.28;;;11.36;100.00
66560;BME280;53413;49.878;8.142;2023-02-18T02:55:54;100669.09;;;11.34;100.00
66560;BME280;53413;49.878;8.142;2023-02-18T02:58:20;100670.03;;;11.32;100.00
66560;BME280;53413;49.878;8.142;2023-02-18T03:01:13;100660.44;;;11.31;100.00
66560;BME280;53413;49.878;8.142;2023-02-18T03:08:59;100658.84;;;11.27;100.00
66560;BME280;53413;49.878;8.142;2023-02-18T03:11:28;100653.63;;;11.25;100.00
66560;BME280;53413;49.878;8.142;2023-02-18T03:14:08;100657.19;;;11.24;100.00
66560;BME280;53413;49.878;8.142;2023-02-18T03:16:49;100657.97;;;11.26;100.00
66560;BME280;53413;49.878;8.142;2023-02-18T03:21:51;100656.16;;;11.28;100.00
66560;BME280;53413;49.878;8.142;2023-02-18T03:24:28;100656.97;;;11.30;100.00
66560;BME280;53413;49.878;8.142;2023-02-18T03:27:03;100656.88;;;11.33;100.00
66560;BME280;53413;49.878;8.142;2023-02-18T03:29:30;100663.88;;;11.33;100.00
66560;BME280;53413;49.878;8.142;2023-02-18T03:32:01;100659.50;;;11.33;100.00
66560;BME280;53413;49.878;8.142;2023-02-18T03:34:34;100664.75;;;11.33;100.00
66560;BME280;53413;49.878;8.142;2023-02-18T03:37:02;100672.63;;;11.33;100.00
66560;BME280;53413;49.878;8.142;2023-02-18T03:39:30;100663.88;;;11.33;100.00
66560;BME280;53413;49.878;8.142;2023-02-18T03:41:56;100667.47;;;11.30;100.00
66560;BME280;53413;49.878;8.142;2023-02-18T03:44:24;100664.84;;;11.30;100.00
66560;BME280;53413;49.878;8.142;2023-02-18T03:46:50;100673.69;;;11.26;100.00
66560;BME280;53413;49.878;8.142;2023-02-18T03:49:16;100670.28;;;11.24;100.00
66560;BME280;53413;49.878;8.142;2023-02-18T03:51:42;100669.47;;;11.22;100.00
66560;BME280;53413;49.878;8.142;2023-02-18T03:54:08;100667.69;;;11.22;100.00
66560;BME280;53413;49.878;8.142;2023-02-18T03:56:34;100668.66;;;11.20;100.00
66560;BME280;53413;49.878;8.142;2023-02-18T03:59:00;100666.94;;;11.19;100.00
66560;BME280;53413;49.878;8.142;2023-02-18T04:01:26;100673.16;;;11.16;100.00
66560;BME280;53413;49.878;8.142;2023-02-18T04:03:51;100666.25;;;11.12;100.00
66560;BME280;53413;49.878;8.142;2023-02-18T04:06:17;100670.75;;;11.08;100.00
66560;BME280;53413;49.878;8.142;2023-02-18T04:08:42;100667.38;;;11.03;100.00
66560;BME280;53413;49.878;8.142;2023-02-18T04:11:08;100660.63;;;10.96;100.00
66560;BME280;53413;49.878;8.142;2023-02-18T04:13:33;100653.81;;;10.89;100.00
66560;BME280;53413;49.878;8.142;2023-02-18T04:15:59;100654.09;;;10.80;100.00
66560;BME280;53413;49.878;8.142;2023-02-18T04:18:24;100654.28;;;10.73;100.00
66560;BME280;53413;49.878;8.142;2023-02-18T04:20:50;100657.03;;;10.69;100.00
66560;BME280;53413;49.878;8.142;2023-02-18T04:23:15;100655.25;;;10.69;100.00
66560;BME280;53413;49.878;8.142;2023-02-18T04:25:41;100654.41;;;10.69;100.00
66560;BME280;53413;49.878;8.142;2023-02-18T04:28:06;100644.72;;;10.71;100.00
66560;BME280;53413;49.878;8.142;2023-02-18T04:30:32;100647.34;;;10.71;100.00
66560;BME280;53413;49.878;8.142;2023-02-18T04:32:57;100634.22;;;10.72;100.00
66560;BME280;53413;49.878;8.142;2023-02-18T04:35:22;100628.06;;;10.73;100.00
66560;BME280;53413;49.878;8.142;2023-02-18T04:37:48;100637.53;;;10.77;100.00
66560;BME280;53413;49.878;8.142;2023-02-18T04:40:14;100636.63;;;10.78;100.00
66560;BME280;53413;49.878;8.142;2023-02-18T04:42:39;100634.03;;;10.78;100.00
66560;BME280;53413;49.878;8.142;2023-02-18T04:45:05;100638.38;;;10.80;100.00
66560;BME280;53413;49.878;8.142;2023-02-18T04:47:30;100640.09;;;10.81;100.00
66560;BME280;53413;49.878;8.142;2023-02-18T04:49:56;100640.09;;;10.81;100.00
66560;BME280;53413;49.878;8.142;2023-02-18T04:52:21;100645.25;;;10.84;100.00
66560;BME280;53413;49.878;8.142;2023-02-18T04:54:47;100643.38;;;10.87;100.00
66560;BME280;53413;49.878;8.142;2023-02-18T04:57:12;100639.81;;;10.90;100.00
66560;BME280;53413;49.878;8.142;2023-02-18T04:59:38;100640.69;;;10.89;100.00
66560;BME280;53413;49.878;8.142;2023-02-18T05:02:04;100638.09;;;10.89;100.00
66560;BME280;53413;49.878;8.142;2023-02-18T05:04:29;100644.16;;;10.91;100.00
66560;BME280;53413;49.878;8.142;2023-02-18T05:06:55;100633.66;;;10.91;100.00
66560;BME280;53413;49.878;8.142;2023-02-18T05:09:20;100623.22;;;10.89;100.00
66560;BME280;53413;49.878;8.142;2023-02-18T05:11:46;100622.31;;;10.90;100.00
66560;BME280;53413;49.878;8.142;2023-02-18T05:14:12;100620.53;;;10.91;100.00
66560;BME280;53413;49.878;8.142;2023-02-18T05:16:37;100633.56;;;10.94;100.00
66560;BME280;53413;49.878;8.142;2023-02-18T05:19:02;100628.38;;;10.92;100.00
66560;BME280;53413;49.878;8.142;2023-02-18T05:21:28;100635.38;;;10.92;100.00
66560;BME280;53413;49.878;8.142;2023-02-18T05:23:53;100645.03;;;10.91;100.00
66560;BME280;53413;49.878;8.142;2023-02-18T05:26:18;100640.69;;;10.90;100.00
66560;BME280;53413;49.878;8.142;2023-02-18T05:28:44;100634.56;;;10.90;100.00
66560;BME280;53413;49.878;8.142;2023-02-18T05:31:09;100630.19;;;10.90;100.00
66560;BME280;53413;49.878;8.142;2023-02-18T05:33:34;100626.69;;;10.90;100.00
66560;BME280;53413;49.878;8.142;2023-02-18T05:36:00;100625.03;;;10.87;100.00
66560;BME280;53413;49.878;8.142;2023-02-18T05:38:25;100622.41;;;10.87;100.00
66560;BME280;53413;49.878;8.142;2023-02-18T05:40:51;100623.22;;;10.89;100.00
66560;BME280;53413;49.878;8.142;2023-02-18T05:43:16;100622.47;;;10.86;100.00
66560;BME280;53413;49.878;8.142;2023-02-18T05:45:41;100623.31;;;10.86;100.00
66560;BME280;53413;49.878;8.142;2023-02-18T05:48:07;100625.03;;;10.87;100.00
66560;BME280;53413;49.878;8.142;2023-02-18T05:50:32;100635.56;;;10.86;100.00
66560;BME280;53413;49.878;8.142;2023-02-18T05:52:58;100618.16;;;10.83;100.00
66560;BME280;53413;49.878;8.142;2023-02-18T05:55:23;100626.88;;;10.84;100.00
66560;BME280;53413;49.878;8.142;2023-02-18T05:57:49;100621.66;;;10.84;100.00
66560;BME280;53413;49.878;8.142;2023-02-18T06:00:15;100612.06;;;10.83;100.00
66560;BME280;53413;49.878;8.142;2023-02-18T06:02:40;100619.03;;;10.84;100.00
66560;BME280;53413;49.878;8.142;2023-02-18T06:05:07;100610.25;;;10.85;100.00
66560;BME280;53413;49.878;8.142;2023-02-18T06:07:32;100605.84;;;10.85;100.00
66560;BME280;53413;49.878;8.142;2023-02-18T06:09:58;100611.16;;;10.84;100.00
66560;BME280;53413;49.878;8.142;2023-02-18T06:12:23;100605.09;;;10.82;100.00
66560;BME280;53413;49.878;8.142;2023-02-18T06:14:49;100601.66;;;10.80;100.00
66560;BME280;53413;49.878;8.142;2023-02-18T06:17:14;100599.19;;;10.75;100.00
66560;BME280;53413;49.878;8.142;2023-02-18T06:19:40;100591.31;;;10.75;100.00
66560;BME280;53413;49.878;8.142;2023-02-18T06:22:06;100589.66;;;10.72;100.00
66560;BME280;53413;49.878;8.142;2023-02-18T06:24:31;100598.41;;;10.71;100.00
66560;BME280;53413;49.878;8.142;2023-02-18T06:26:57;100597.53;;;10.71;100.00
66560;BME280;53413;49.878;8.142;2023-02-18T06:29:22;100590.59;;;10.70;100.00
66560;BME280;53413;49.878;8.142;2023-02-18T06:31:48;100601.09;;;10.70;100.00
66560;BME280;53413;49.878;8.142;2023-02-18T06:34:13;100610.69;;;10.69;100.00
66560;BME280;53413;49.878;8.142;2023-02-18T06:36:39;100606.34;;;10.68;100.00
66560;BME280;53413;49.878;8.142;2023-02-18T06:39:05;100602.91;;;10.68;100.00
66560;BME280;53413;49.878;8.142;2023-02-18T06:41:31;100608.97;;;10.68;100.00
66560;BME280;53413;49.878;8.142;2023-02-18T06:43:56;100613.38;;;10.68;100.00
66560;BME280;53413;49.878;8.142;2023-02-18T06:46:22;100613.38;;;10.68;100.00
66560;BME280;53413;49.878;8.142;2023-02-18T06:48:47;100622.16;;;10.65;100.00
66560;BME280;53413;49.878;8.142;2023-02-18T06:51:13;100609.88;;;10.67;100.00
66560;BME280;53413;49.878;8.142;2023-02-18T06:53:40;100607.31;;;10.66;100.00
66560;BME280;53413;49.878;8.142;2023-02-18T06:56:06;100613.50;;;10.63;100.00
66560;BME280;53413;49.878;8.142;2023-02-18T06:58:31;100614.31;;;10.65;100.00
66560;BME280;53413;49.878;8.142;2023-02-18T07:00:56;100618.66;;;10.66;100.00
66560;BME280;53413;49.878;8.142;2023-02-18T07:03:22;100616.00;;;10.68;100.00
66560;BME280;53413;49.878;8.142;2023-02-18T07:05:47;100609.88;;;10.67;100.00
66560;BME280;53413;49.878;8.142;2023-02-18T07:08:13;100611.59;;;10.68;100.00
66560;BME280;53413;49.878;8.142;2023-02-18T07:10:38;100604.63;;;10.67;100.00
66560;BME280;53413;49.878;8.142;2023-02-18T07:13:04;100602.84;;;10.69;100.00
66560;BME280;53413;49.878;8.142;2023-02-18T07:15:30;100598.47;;;10.70;100.00
66560;BME280;53413;49.878;8.142;2023-02-18T07:17:55;100597.53;;;10.71;100.00
66560;BME280;53413;49.878;8.142;2023-02-18T07:20:21;100605.28;;;10.75;100.00
66560;BME280;53413;49.878;8.142;2023-02-18T07:22:47;100599.13;;;10.76;100.00
66560;BME280;53413;49.878;8.142;2023-02-18T07:25:12;100602.53;;;10.80;100.00
66560;BME280;53413;49.878;8.142;2023-02-18T07:27:38;100606.00;;;10.81;100.00
66560;BME280;53413;49.878;8.142;2023-02-18T07:30:04;100599.78;;;10.85;100.00
66560;BME280;53413;49.878;8.142;2023-02-18T07:32:30;100600.63;;;10.85;100.00
66560;BME280;53413;49.878;8.142;2023-02-18T07:34:55;100601.34;;;10.90;100.00
66560;BME280;53413;49.878;8.142;2023-02-18T07:37:21;100603.78;;;10.97;100.00
66560;BME280;53413;49.878;8.142;2023-02-18T07:39:46;100598.50;;;10.98;100.00
66560;BME280;53413;49.878;8.142;2023-02-18T07:42:12;100601.88;;;11.02;100.00
66560;BME280;53413;49.878;8.142;2023-02-18T07:44:38;100602.56;;;11.08;100.00
66560;BME280;53413;49.878;8.142;2023-02-18T07:47:06;100601.69;;;11.08;100.00
66560;BME280;53413;49.878;8.142;2023-02-18T07:49:32;100597.34;;;11.07;100.00
66560;BME280;53413;49.878;8.142;2023-02-18T07:51:57;100605.13;;;11.10;100.00
66560;BME280;53413;49.878;8.142;2023-02-18T07:54:23;100588.53;;;11.09;100.00
66560;BME280;53413;49.878;8.142;2023-02-18T07:56:48;100599.03;;;11.09;100.00
66560;BME280;53413;49.878;8.142;2023-02-18T07:59:14;100599.03;;;11.09;100.00
66560;BME280;53413;49.878;8.142;2023-02-18T08:01:40;100598.91;;;11.13;100.00
66560;BME280;53413;49.878;8.142;2023-02-18T08:04:06;100590.03;;;11.17;100.00
66560;BME280;53413;49.878;8.142;2023-02-18T08:06:39;100602.09;;;11.22;100.00
66560;BME280;53413;49.878;8.142;2023-02-18T08:09:05;100596.72;;;11.27;100.00
66560;BME280;53413;49.878;8.142;2023-02-18T08:11:31;100600.72;;;11.39;100.00
66560;BME280;53413;49.878;8.142;2023-02-18T08:13:57;100591.50;;;11.54;100.00
66560;BME280;53413;49.878;8.142;2023-02-18T08:16:23;100584.88;;;11.69;100.00
66560;BME280;53413;49.878;8.142;2023-02-18T08:18:49;100579.75;;;11.91;100.00
66560;BME280;53413;49.878;8.142;2023-02-18T08:21:16;100578.81;;;12.19;100.00
66560;BME280;53413;49.878;8.142;2023-02-18T08:23:42;100573.56;;;12.43;100.00
66560;BME280;53413;49.878;8.142;2023-02-18T08:26:08;100572.41;;;12.74;100.00
66560;BME280;53413;49.878;8.142;2023-02-18T08:28:33;100581.84;;;12.80;100.00
66560;BME280;53413;49.878;8.142;2023-02-18T08:30:59;100576.50;;;13.05;100.00
66560;BME280;53413;49.878;8.142;2023-02-18T08:33:24;100575.63;;;13.27;100.00
66560;BME280;53413;49.878;8.142;2023-02-18T08:35:52;100576.97;;;13.37;100.00
66560;BME280;53413;49.878;8.142;2023-02-18T08:38:18;100581.78;;;13.91;100.00
66560;BME280;53413;49.878;8.142;2023-02-18T08:40:44;100567.91;;;16.28;90.17
66560;BME280;53413;49.878;8.142;2023-02-18T08:43:10;100584.38;;;17.31;81.66
66560;BME280;53413;49.878;8.142;2023-02-18T08:45:39;100578.25;;;17.30;76.90
66560;BME280;53413;49.878;8.142;2023-02-18T08:48:06;100585.38;;;16.48;75.43
66560;BME280;53413;49.878;8.142;2023-02-18T08:50:32;100599.25;;;15.48;77.37
66560;BME280;53413;49.878;8.142;2023-02-18T08:52:57;100602.28;;;14.84;79.45
66560;BME280;53413;49.878;8.142;2023-02-18T08:55:25;100589.16;;;14.24;80.98
66560;BME280;53413;49.878;8.142;2023-02-18T08:57:51;100582.66;;;13.91;82.46
66560;BME280;53413;49.878;8.142;2023-02-18T09:00:17;100594.41;;;13.62;84.77
66560;BME280;53413;49.878;8.142;2023-02-18T09:02:43;100600.97;;;13.29;85.63
66560;BME280;53413;49.878;8.142;2023-02-18T09:05:09;100588.59;;;13.09;86.57
66560;BME280;53413;49.878;8.142;2023-02-18T09:07:35;100587.72;;;12.86;87.87
66560;BME280;53413;49.878;8.142;2023-02-18T09:10:01;100588.00;;;12.78;87.38
66560;BME280;53413;49.878;8.142;2023-02-18T09:12:27;100578.66;;;12.93;88.38
66560;BME280;53413;49.878;8.142;2023-02-18T09:14:52;100593.84;;;13.09;86.82
66560;BME280;53413;49.878;8.142;2023-02-18T09:17:18;100591.84;;;13.38;85.83
66560;BME280;53413;49.878;8.142;2023-02-18T09:19:43;100588.75;;;13.50;85.92
66560;BME280;53413;49.878;8.142;2023-02-18T09:22:08;100589.19;;;13.60;84.89
66560;BME280;53413;49.878;8.142;2023-02-18T09:24:37;100593.50;;;13.63;84.72
66560;BME280;53413;49.878;8.142;2023-02-18T09:27:03;100601.75;;;13.53;83.34
66560;BME280;53413;49.878;8.142;2023-02-18T09:29:28;100603.03;;;13.45;83.82
66560;BME280;53413;49.878;8.142;2023-02-18T09:31:54;100602.59;;;13.32;84.30
66560;BME280;53413;49.878;8.142;2023-02-18T09:34:19;100588.97;;;13.22;84.08
66560;BME280;53413;49.878;8.142;2023-02-18T09:36:44;100584.94;;;13.13;84.62
66560;BME280;53413;49.878;8.142;2023-02-18T09:39:10;100585.34;;;13.02;84.78
66560;BME280;53413;49.878;8.142;2023-02-18T09:44:23;100593.84;;;12.87;87.10
66560;BME280;53413;49.878;8.142;2023-02-18T09:49:36;100579.69;;;12.67;87.33
66560;BME280;53413;49.878;8.142;2023-02-18T09:52:21;100592.44;;;12.54;87.61
66560;BME280;53413;49.878;8.142;2023-02-18T09:54:49;100584.94;;;12.43;87.97
66560;BME280;53413;49.878;8.142;2023-02-18T09:57:22;100592.34;;;12.32;87.93
66560;BME280;53413;49.878;8.142;2023-02-18T09:59:55;100587.53;;;12.20;88.69
66560;BME280;53413;49.878;8.142;2023-02-18T10:02:22;100590.44;;;12.12;90.43
66560;BME280;53413;49.878;8.142;2023-02-18T10:04:47;100594.31;;;12.01;90.59
66560;BME280;53413;49.878;8.142;2023-02-18T10:07:30;100602.63;;;11.88;90.71
66560;BME280;53413;49.878;8.142;2023-02-18T10:10:00;100589.75;;;11.80;91.65
66560;BME280;53413;49.878;8.142;2023-02-18T10:12:28;100597.72;;;11.77;92.87
66560;BME280;53413;49.878;8.142;2023-02-18T10:14:58;100600.38;;;11.77;93.32
66560;BME280;53413;49.878;8.142;2023-02-18T10:17:25;100600.38;;;11.77;93.32
66560;BME280;53413;49.878;8.142;2023-02-18T10:19:53;100605.53;;;11.80;93.39
66560;BME280;53413;49.878;8.142;2023-02-18T10:22:21;100592.16;;;11.86;94.53
66560;BME280;53413;49.878;8.142;2023-02-18T10:25:02;100583.78;;;12.01;95.22
66560;BME280;53413;49.878;8.142;2023-02-18T10:27:31;100576.28;;;12.16;93.45
66560;BME280;53413;49.878;8.142;2023-02-18T10:32:43;100579.94;;;12.12;94.56
66560;BME280;53413;49.878;8.142;2023-02-18T10:43:26;100574.78;;;12.09;95.42
66560;BME280;53413;49.878;8.142;2023-02-18T10:45:57;100566.78;;;12.12;94.98
66560;BME280;53413;49.878;8.142;2023-02-18T10:48:51;100567.06;;;12.29;95.28
66560;BME280;53413;49.878;8.142;2023-02-18T10:51:28;100560.00;;;12.54;93.79
66560;BME280;53413;49.878;8.142;2023-02-18T10:53:54;100558.09;;;12.59;92.95
66560;BME280;53413;49.878;8.142;2023-02-18T10:59:09;100559.34;;;13.39;90.33
66560;BME280;53413;49.878;8.142;2023-02-18T11:01:35;100555.53;;;13.68;88.91
66560;BME280;53413;49.878;8.142;2023-02-18T11:04:18;100563.69;;;13.83;88.68
66560;BME280;53413;49.878;8.142;2023-02-18T11:06:47;100554.00;;;13.83;88.05
66560;BME280;53413;49.878;8.142;2023-02-18T11:09:45;100551.53;;;13.99;86.66
66560;BME280;53413;49.878;8.142;2023-02-18T11:12:22;100537.63;;;14.16;84.73
66560;BME280;53413;49.878;8.142;2023-02-18T11:15:16;100539.44;;;14.35;84.72
66560;BME280;53413;49.878;8.142;2023-02-18T11:17:42;100550.84;;;14.55;82.65
66560;BME280;53413;49.878;8.142;2023-02-18T11:25:39;100546.72;;;14.87;81.43
66560;BME280;53413;49.878;8.142;2023-02-18T11:30:42;100530.19;;;14.45;81.74
66560;BME280;53413;49.878;8.142;2023-02-18T11:33:16;100540.00;;;14.23;81.89
66560;BME280;53413;49.878;8.142;2023-02-18T11:35:54;100535.59;;;14.03;82.75
66560;BME280;53413;49.878;8.142;2023-02-18T11:40:56;100530.38;;;13.82;83.36
66560;BME280;53413;49.878;8.142;2023-02-18T11:43:28;100529.50;;;13.61;83.89
66560;BME280;53413;49.878;8.142;2023-02-18T11:46:19;100547.09;;;13.38;85.38
66560;BME280;53413;49.878;8.142;2023-02-18T11:48:45;100542.84;;;13.13;85.46
66560;BME280;53413;49.878;8.142;2023-02-18T11:51:26;100547.09;;;12.93;85.71
66560;BME280;53413;49.878;8.142;2023-02-18T11:56:25;100538.41;;;12.69;87.51
66560;BME280;53413;49.878;8.142;2023-02-18T11:58:51;100535.16;;;12.62;88.98
66560;BME280;53413;49.878;8.142;2023-02-18T12:01:27;100534.53;;;12.56;89.19
66560;BME280;53413;49.878;8.142;2023-02-18T12:04:06;100529.34;;;12.54;89.71
66560;BME280;53413;49.878;8.142;2023-02-18T12:06:49;100525.00;;;12.53;90.52
66560;BME280;53413;49.878;8.142;2023-02-18T12:09:27;100503.16;;;12.51;89.73
66560;BME280;53413;49.878;8.142;2023-02-18T12:11:57;100511.13;;;12.50;90.80
66560;BME280;53413;49.878;8.142;2023-02-18T12:14:23;100509.69;;;12.41;89.92
66560;BME280;53413;49.878;8.142;2023-02-18T12:17:04;100509.81;;;12.38;91.23
66560;BME280;53413;49.878;8.142;2023-02-18T12:27:11;100484.25;;;12.41;91.78
66560;BME280;53413;49.878;8.142;2023-02-18T12:32:49;100481.34;;;12.49;92.89
66560;BME280;53413;49.878;8.142;2023-02-18T12:41:28;100474.31;;;12.50;94.00
66560;BME280;53413;49.878;8.142;2023-02-18T13:00:30;100469.25;;;12.67;94.23
66560;BME280;53413;49.878;8.142;2023-02-18T13:08:56;100465.59;;;13.14;92.79
66560;BME280;53413;49.878;8.142;2023-02-18T13:11:38;100474.75;;;13.26;92.57
66560;BME280;53413;49.878;8.142;2023-02-18T13:14:17;100450.75;;;13.34;91.85
66560;BME280;53413;49.878;8.142;2023-02-18T13:16:46;100454.41;;;13.52;92.13
66560;BME280;53413;49.878;8.142;2023-02-18T13:21:53;100447.50;;;13.89;89.14
66560;BME280;53413;49.878;8.142;2023-02-18T13:24:44;100451.50;;;13.98;88.32
66560;BME280;53413;49.878;8.142;2023-02-18T13:27:32;100451.56;;;14.15;88.70
66560;BME280;53413;49.878;8.142;2023-02-18T13:35:34;100452.00;;;14.06;88.74
66560;BME280;53413;49.878;8.142;2023-02-18T13:40:51;100446.66;;;13.89;89.55
66560;BME280;53413;49.878;8.142;2023-02-18T13:43:34;100461.25;;;13.56;89.63
66560;BME280;53413;49.878;8.142;2023-02-18T13:48:39;100462.31;;;13.09;92.82
66560;BME280;53413;49.878;8.142;2023-02-18T13:51:06;100459.53;;;12.91;93.31
66560;BME280;53413;49.878;8.142;2023-02-18T13:53:35;100463.56;;;12.78;94.68
66560;BME280;53413;49.878;8.142;2023-02-18T13:56:08;100470.03;;;12.69;96.01
66560;BME280;53413;49.878;8.142;2023-02-18T13:58:44;100476.63;;;12.57;96.09
66560;BME280;53413;49.878;8.142;2023-02-18T14:01:21;100483.16;;;12.47;97.19
66560;BME280;53413;49.878;8.142;2023-02-18T14:03:57;100476.50;;;12.38;97.77
66560;BME280;53413;49.878;8.142;2023-02-18T14:06:29;100474.78;;;12.37;99.02
66560;BME280;53413;49.878;8.142;2023-02-18T14:11:55;100480.78;;;12.41;98.91
66560;BME280;53413;49.878;8.142;2023-02-18T14:20:21;100476.34;;;12.43;100.00
66560;BME280;53413;49.878;8.142;2023-02-18T14:22:46;100475.47;;;12.42;100.00
66560;BME280;53413;49.878;8.142;2023-02-18T14:25:21;100471.38;;;12.35;99.94
66560;BME280;53413;49.878;8.142;2023-02-18T14:27:52;100480.28;;;12.31;100.00
66560;BME280;53413;49.878;8.142;2023-02-18T14:32:48;100473.38;;;12.28;100.00
66560;BME280;53413;49.878;8.142;2023-02-18T14:40:54;100471.81;;;12.46;100.00
66560;BME280;53413;49.878;8.142;2023-02-18T14:49:28;100466.59;;;12.45;100.00
66560;BME280;53413;49.878;8.142;2023-02-18T14:51:57;100466.38;;;12.51;100.00
66560;BME280;53413;49.878;8.142;2023-02-18T14:54:25;100477.00;;;12.48;100.00
66560;BME280;53413;49.878;8.142;2023-02-18T14:57:05;100476.25;;;12.44;100.00
66560;BME280;53413;49.878;8.142;2023-02-18T14:59:39;100479.91;;;12.40;100.00
66560;BME280;53413;49.878;8.142;2023-02-18T15:02:17;100479.13;;;12.38;100.00
66560;BME280;53413;49.878;8.142;2023-02-18T15:04:43;100474.09;;;12.32;100.00
66560;BME280;53413;49.878;8.142;2023-02-18T15:07:10;100483.06;;;12.26;100.00
66560;BME280;53413;49.878;8.142;2023-02-18T15:09:44;100479.88;;;12.18;100.00
66560;BME280;53413;49.878;8.142;2023-02-18T15:12:14;100475.75;;;12.11;100.00